Time;durP1;ratioP1;P1;durP2;ratioP2;P2;SDS_P1;SDS_P2;PMS_P1;PMS_P2;Temp;Humidity;BMP_temperature;BMP_pressure;BME280_temperature;BME280_humidity;BME280_pressure;Samples;Min_cycle;Max_cycle;Signal;HPM_P1;HPM_P2
2022/11/22 00:00:15;;;;;;;5.40;1.95;;;;;;;2.32;73.41;99191.69;1700570;82;21051;-61
2022/11/22 00:02:42;;;;;;;3.80;1.30;;;;;;;2.27;73.45;99185.97;1692482;83;21664;-61
2022/11/22 00:05:09;;;;;;;4.20;1.52;;;;;;;2.21;73.78;99188.95;1699906;82;21107;-61
2022/11/22 00:07:36;;;;;;;5.17;2.20;;;;;;;2.16;73.81;99199.62;1708566;82;21257;-61
2022/11/22 00:10:06;;;;;;;4.72;1.72;;;;;;;2.08;73.80;99199.75;1742578;81;21051;-61
2022/11/22 00:12:33;;;;;;;5.72;1.50;;;;;;;2.01;73.96;99200.13;1739118;80;21078;-61
2022/11/22 00:15:00;;;;;;;4.97;1.72;;;;;;;1.97;74.04;99205.16;1702372;83;21445;-60
2022/11/22 00:17:26;;;;;;;4.53;1.30;;;;;;;2.04;73.93;99203.00;1709775;82;21340;-61
2022/11/22 00:19:53;;;;;;;4.17;1.35;;;;;;;2.10;73.82;99201.77;1706875;82;21839;-61
2022/11/22 00:22:20;;;;;;;4.75;2.25;;;;;;;2.15;73.69;99204.91;1708061;82;21057;-61
2022/11/22 00:24:50;;;;;;;4.20;1.77;;;;;;;2.14;73.51;99207.97;1703968;83;21131;-61
2022/11/22 00:27:17;;;;;;;6.40;1.52;;;;;;;2.10;73.50;99217.34;1703696;82;21077;-62
2022/11/22 00:29:43;;;;;;;4.80;1.87;;;;;;;1.99;73.45;99217.56;1706167;83;21053;-61
2022/11/22 00:32:10;;;;;;;5.35;1.85;;;;;;;1.90;73.46;99216.86;1705699;82;21388;-61
2022/11/22 00:34:37;;;;;;;4.90;1.65;;;;;;;1.83;73.54;99228.08;1708197;82;21123;-62
2022/11/22 00:37:04;;;;;;;3.95;1.72;;;;;;;1.75;73.56;99222.53;1706196;83;21071;-62
2022/11/22 00:39:31;;;;;;;3.77;1.40;;;;;;;1.77;73.38;99231.52;1704520;83;21090;-61
2022/11/22 00:41:57;;;;;;;4.83;1.50;;;;;;;1.81;73.18;99223.42;1706120;83;21038;-62
2022/11/22 00:44:24;;;;;;;3.83;1.17;;;;;;;1.80;73.25;99220.48;1697913;82;21254;-61
2022/11/22 00:46:50;;;;;;;4.40;1.22;;;;;;;1.79;73.50;99228.36;1703628;82;21549;-62
2022/11/22 00:49:17;;;;;;;4.78;1.30;;;;;;;1.78;73.36;99227.98;1701257;82;21046;-61
2022/11/22 00:51:44;;;;;;;3.37;1.50;;;;;;;1.74;73.10;99225.22;1699025;82;21135;-62
2022/11/22 00:54:11;;;;;;;4.37;1.30;;;;;;;1.61;72.96;99222.54;1701146;82;21034;-61
2022/11/22 00:56:39;;;;;;;5.12;1.57;;;;;;;1.56;72.81;99215.51;1704779;82;21059;-61
2022/11/22 00:59:06;;;;;;;3.55;1.10;;;;;;;1.59;72.76;99220.04;1706158;82;21047;-62
2022/11/22 01:01:32;;;;;;;4.08;1.20;;;;;;;1.57;72.67;99219.31;1704169;83;21051;-61
2022/11/22 01:03:59;;;;;;;3.55;1.32;;;;;;;1.52;72.71;99221.83;1709253;82;21194;-61
2022/11/22 01:06:26;;;;;;;5.28;1.62;;;;;;;1.48;73.09;99219.41;1705091;82;21063;-61
2022/11/22 01:08:53;;;;;;;4.03;1.17;;;;;;;1.45;73.23;99230.44;1704642;82;21272;-62
2022/11/22 01:11:21;;;;;;;3.85;1.07;;;;;;;1.50;73.46;99241.36;1703548;83;21075;-61
2022/11/22 01:13:47;;;;;;;3.75;1.42;;;;;;;1.61;73.15;99254.95;1744546;80;21055;-61
2022/11/22 01:16:14;;;;;;;2.85;0.70;;;;;;;1.63;73.02;99246.61;1744846;80;21078;-61
2022/11/22 01:18:41;;;;;;;3.05;1.00;;;;;;;1.66;73.13;99250.31;1739820;79;21499;-60
2022/11/22 01:21:08;;;;;;;4.12;1.65;;;;;;;1.67;73.07;99251.52;1740697;80;21127;-60
2022/11/22 01:23:35;;;;;;;2.58;0.93;;;;;;;1.65;73.03;99259.86;1739922;80;21035;-61
2022/11/22 01:26:02;;;;;;;4.75;1.50;;;;;;;1.59;72.94;99254.22;1703051;82;21652;-61
2022/11/22 01:28:28;;;;;;;3.27;1.10;;;;;;;1.53;73.04;99260.63;1738710;80;21103;-61
2022/11/22 01:30:56;;;;;;;4.47;1.37;;;;;;;1.51;73.34;99259.03;1736886;80;21461;-61
2022/11/22 01:33:23;;;;;;;3.80;1.12;;;;;;;1.45;73.37;99264.14;1736088;80;21826;-61
2022/11/22 01:35:51;;;;;;;2.40;0.80;;;;;;;1.46;73.05;99270.53;1701079;82;21042;-62
2022/11/22 01:38:18;;;;;;;1.85;0.60;;;;;;;1.53;72.61;99272.29;1742745;80;21059;-61
2022/11/22 01:40:44;;;;;;;2.80;1.07;;;;;;;1.54;72.19;99280.42;1744825;80;21029;-61
2022/11/22 01:43:18;;;;;;;3.37;0.90;;;;;;;1.49;71.99;99285.88;1740711;80;21032;-60
2022/11/22 01:45:51;;;;;;;4.28;1.40;;;;;;;1.45;72.11;99280.98;1706782;82;21156;-60
2022/11/22 01:48:32;;;;;;;2.30;0.82;;;;;;;1.37;71.85;99284.03;1741454;80;21033;-60
2022/11/22 01:51:15;;;;;;;2.83;1.12;;;;;;;1.33;71.52;99285.59;1747257;80;20987;-61
2022/11/22 01:53:42;;;;;;;3.50;1.20;;;;;;;1.24;71.14;99272.25;1735305;80;21090;-60
2022/11/22 01:56:13;;;;;;;5.08;1.52;;;;;;;1.22;71.22;99283.17;1730285;80;21044;-60
2022/11/22 01:58:41;;;;;;;3.35;1.20;;;;;;;1.17;71.28;99273.55;1697435;84;21137;-61
2022/11/22 02:01:07;;;;;;;4.17;1.40;;;;;;;1.18;71.37;99273.07;1699655;82;21105;-60
2022/11/22 02:03:36;;;;;;;4.05;1.45;;;;;;;1.18;70.83;99282.99;1682477;83;21082;-61
2022/11/22 02:06:04;;;;;;;3.90;1.20;;;;;;;1.15;70.56;99279.28;1682396;83;20995;-61
2022/11/22 02:09:00;;;;;;;2.67;0.93;;;;;;;1.10;70.61;99273.54;1737200;80;21122;-62
2022/11/22 02:11:27;;;;;;;;;;;;;;;1.11;70.88;99278.64;1741588;80;21150;-62
2022/11/22 02:13:53;;;;;;;5.25;1.42;;;;;;;1.10;70.92;99283.44;1741533;81;20172;-62
2022/11/22 02:16:21;;;;;;;3.50;1.20;;;;;;;1.09;71.02;99293.44;1746277;81;21031;-62
2022/11/22 02:18:49;;;;;;;5.37;1.72;;;;;;;1.11;71.11;99298.54;1748772;80;21079;-60
2022/11/22 02:21:16;;;;;;;4.58;1.12;;;;;;;1.13;71.18;99303.59;1707410;82;21050;-61
2022/11/22 02:23:56;;;;;;;4.37;1.55;;;;;;;1.10;71.13;99300.75;1705168;83;21404;-61
2022/11/22 02:26:26;;;;;;;4.90;1.20;;;;;;;1.09;71.24;99311.58;1700606;82;21094;-61
2022/11/22 02:28:56;;;;;;;6.03;1.65;;;;;;;1.11;71.11;99308.43;1704188;82;21065;-61
2022/11/22 02:31:41;;;;;;;4.70;1.57;;;;;;;1.10;70.89;99307.22;1707070;82;21067;-61
2022/11/22 02:34:09;;;;;;;4.97;1.70;;;;;;;1.06;70.59;99310.89;1703586;83;21398;-61
2022/11/22 02:36:48;;;;;;;7.65;2.75;;;;;;;1.00;70.64;99315.98;1700605;82;21042;-60
2022/11/22 02:39:19;;;;;;;10.32;3.62;;;;;;;0.98;70.87;99323.48;1707187;82;21037;-61
2022/11/22 02:41:45;;;;;;;11.40;4.10;;;;;;;0.99;70.96;99331.61;1698906;82;21122;-63
2022/11/22 02:44:13;;;;;;;19.60;6.65;;;;;;;0.99;70.76;99344.56;1671506;84;21115;-62
2022/11/22 02:46:52;;;;;;;8.53;3.17;;;;;;;0.94;70.51;99339.63;1700863;82;21040;-61
2022/11/22 02:49:22;;;;;;;12.58;4.60;;;;;;;0.88;70.34;99326.58;1702304;82;21147;-61
2022/11/22 02:51:50;;;;;;;22.87;10.30;;;;;;;0.85;70.56;99328.52;1708082;82;21054;-62
2022/11/22 02:54:17;;;;;;;21.57;9.68;;;;;;;0.84;70.63;99334.17;1671483;84;21066;-60
2022/11/22 02:56:46;;;;;;;14.00;6.00;;;;;;;0.84;70.40;99340.64;1704424;82;21567;-61
2022/11/22 02:59:12;;;;;;;10.15;5.03;;;;;;;0.80;70.38;99348.66;1682746;84;21678;-61
2022/11/22 03:01:39;;;;;;;13.95;4.58;;;;;;;0.74;70.26;99359.73;1704094;84;22082;-60
2022/11/22 03:04:07;;;;;;;9.85;4.40;;;;;;;0.73;70.32;99358.53;1705112;83;21050;-60
2022/11/22 03:06:34;;;;;;;16.32;8.25;;;;;;;0.73;70.47;99348.17;1706796;82;21046;-61
2022/11/22 03:09:01;;;;;;;11.97;4.28;;;;;;;0.73;70.36;99353.34;1708267;82;21089;-61
2022/11/22 03:11:28;;;;;;;6.33;2.72;;;;;;;0.70;70.47;99358.70;1750390;80;21066;-61
2022/11/22 03:13:54;;;;;;;7.80;2.83;;;;;;;0.71;70.56;99368.97;1746672;80;21909;-61
2022/11/22 03:16:21;;;;;;;6.00;2.27;;;;;;;0.70;70.80;99376.34;1705004;82;21989;-61
2022/11/22 03:18:47;;;;;;;8.60;2.85;;;;;;;0.71;70.67;99371.56;1702282;83;21616;-61
2022/11/22 03:21:15;;;;;;;8.00;3.50;;;;;;;0.70;70.47;99362.58;1704617;83;21770;-61
2022/11/22 03:23:42;;;;;;;8.45;3.25;;;;;;;0.72;70.62;99364.17;1704062;82;21047;-61
2022/11/22 03:26:10;;;;;;;7.95;3.60;;;;;;;0.78;70.63;99369.46;1702545;82;21617;-61
2022/11/22 03:28:38;;;;;;;12.07;4.15;;;;;;;0.78;70.18;99370.76;1702123;82;21036;-61
2022/11/22 03:31:06;;;;;;;8.18;3.80;;;;;;;0.76;69.77;99379.08;1703937;83;21115;-61
2022/11/22 03:33:34;;;;;;;6.72;3.10;;;;;;;0.71;69.80;99376.73;1700255;83;21103;-61
2022/11/22 03:36:01;;;;;;;8.98;4.25;;;;;;;0.72;69.69;99378.42;1716663;82;21531;-61
2022/11/22 03:38:28;;;;;;;9.00;4.15;;;;;;;0.72;69.75;99377.56;1747261;80;21263;-61
2022/11/22 03:40:54;;;;;;;9.03;4.00;;;;;;;0.74;69.84;99394.70;1745749;80;21087;-61
2022/11/22 03:43:21;;;;;;;7.28;3.55;;;;;;;0.76;69.96;99394.62;1747379;81;21043;-62
2022/11/22 03:45:48;;;;;;;9.35;3.05;;;;;;;0.79;70.09;99398.34;1709262;83;21074;-61
2022/11/22 03:48:15;;;;;;;7.53;3.05;;;;;;;0.80;69.94;99396.10;1746289;80;21003;-61
2022/11/22 03:50:42;;;;;;;7.28;4.05;;;;;;;0.81;69.75;99407.28;1738080;80;21273;-61
2022/11/22 03:53:09;;;;;;;5.78;2.50;;;;;;;0.77;69.47;99431.70;1745729;80;21106;-61
2022/11/22 03:55:36;;;;;;;7.25;3.08;;;;;;;0.71;69.46;99421.22;1744798;81;21067;-62
2022/11/22 03:58:03;;;;;;;6.20;2.77;;;;;;;0.70;69.54;99426.02;1745413;80;21043;-62
2022/11/22 04:00:30;;;;;;;7.03;3.65;;;;;;;0.68;69.66;99414.91;1743452;80;21020;-62
2022/11/22 04:02:57;;;;;;;7.40;3.50;;;;;;;0.72;69.70;99412.52;1745109;80;21278;-61
2022/11/22 04:05:24;;;;;;;8.50;3.62;;;;;;;0.74;69.51;99408.11;1742497;80;21145;-61
2022/11/22 04:10:12;;;;;;;6.87;2.30;;;;;;;0.71;69.88;99397.45;1777524;77;22789;-83
2022/11/22 04:12:58;;;;;;;7.85;2.70;;;;;;;0.83;69.50;99405.00;1790568;78;20899;-81
2022/11/22 04:15:31;;;;;;;6.50;2.42;;;;;;;0.89;68.75;99415.03;1787031;78;21437;-83
2022/11/22 04:18:25;;;;;;;7.60;1.90;;;;;;;0.79;68.63;99403.95;1787927;78;20994;-83
2022/11/22 04:26:43;;;;;;;5.95;1.87;;;;;;;0.66;68.29;99423.23;1778312;78;21131;-85
2022/11/22 04:29:23;;;;;;;6.20;2.50;;;;;;;0.58;68.43;99427.98;1758220;79;21112;-85
2022/11/22 04:35:04;;;;;;;5.90;1.95;;;;;;;0.57;68.82;99432.77;1750197;80;20978;-83
2022/11/22 04:38:07;;;;;;;;;;;;;;;;;;;;;
2022/11/22 04:46:15;;;;;;;6.00;2.98;;;;;;;0.58;68.98;99433.16;1744947;81;21065;-83
2022/11/22 04:48:51;;;;;;;7.03;3.30;;;;;;;0.54;68.98;99438.50;1726127;82;21385;-83
2022/11/22 04:54:22;;;;;;;6.08;2.12;;;;;;;0.54;69.23;99442.85;1774126;79;21033;-82
2022/11/22 04:56:50;;;;;;;7.12;2.90;;;;;;;0.55;69.13;99450.98;1783811;80;20879;-87
2022/11/22 04:59:20;;;;;;;;;;;;;;;0.55;69.05;99454.86;1763539;79;21377;-87
2022/11/22 05:02:03;;;;;;;6.85;2.67;;;;;;;0.57;69.20;99461.25;1777755;79;20394;-86
2022/11/22 05:04:39;;;;;;;7.70;2.65;;;;;;;0.58;69.22;99471.53;1782055;78;21508;-87
2022/11/22 05:07:12;;;;;;;8.28;3.22;;;;;;;0.60;68.91;99468.86;1776486;78;21010;-87
2022/11/22 05:09:50;;;;;;;10.05;2.92;;;;;;;0.55;69.07;99463.48;1755913;79;21129;-86
2022/11/22 05:12:11;;;;;;;7.92;2.92;;;;;;;0.61;69.15;99467.95;1748908;80;21592;-86
2022/11/22 05:14:45;;;;;;;6.22;2.85;;;;;;;0.60;68.83;99468.86;1751632;80;21489;-87
2022/11/22 05:17:15;;;;;;;10.68;3.15;;;;;;;0.57;68.82;99474.20;1717402;81;21081;-87
2022/11/22 05:20:07;;;;;;;7.55;3.47;;;;;;;0.51;69.02;99473.61;1721228;81;21036;-87
2022/11/22 05:25:50;;;;;;;6.80;2.65;;;;;;;0.53;69.15;99483.41;1716929;81;21109;-84
2022/11/22 05:28:20;;;;;;;6.92;2.55;;;;;;;0.56;69.21;99487.61;1716619;81;21101;-83
2022/11/22 05:30:50;;;;;;;6.10;2.62;;;;;;;0.58;69.01;99489.65;1717888;81;21054;-83
2022/11/22 05:33:36;;;;;;;6.25;3.05;;;;;;;0.61;68.82;99499.02;1745201;80;21077;-83
2022/11/22 05:36:15;;;;;;;9.15;2.75;;;;;;;0.58;68.95;99492.70;1716195;81;21092;-83
2022/11/22 05:38:54;;;;;;;6.53;3.37;;;;;;;0.59;68.73;99498.24;1739530;80;21069;-83
2022/11/22 05:41:31;;;;;;;7.05;3.20;;;;;;;0.57;68.71;99489.73;1750133;80;21086;-83
2022/11/22 05:44:00;;;;;;;6.20;2.70;;;;;;;0.57;68.86;99502.67;1672391;83;20975;-87
2022/11/22 05:46:45;;;;;;;7.65;2.70;;;;;;;0.57;68.59;99509.14;1721271;81;20899;-83
2022/11/22 05:49:52;;;;;;;;;;;;;;;;;;;;;
2022/11/22 05:52:32;;;;;;;7.15;3.00;;;;;;;0.54;68.67;99512.28;1699269;81;21633;-84
2022/11/22 05:55:09;;;;;;;6.35;2.60;;;;;;;0.54;68.66;99509.69;1705624;80;21029;-83
2022/11/22 05:57:46;;;;;;;7.30;3.05;;;;;;;0.54;68.78;99517.45;1749063;80;21858;-82
2022/11/22 06:00:22;;;;;;;7.85;3.00;;;;;;;0.57;68.86;99517.73;1753760;80;20859;-87
2022/11/22 06:03:07;;;;;;;7.22;3.02;;;;;;;0.62;68.90;99533.03;1744885;80;21320;-86
2022/11/22 06:05:37;;;;;;;5.90;2.42;;;;;;;0.62;68.77;99528.69;1658991;84;21132;-86
2022/11/22 06:08:26;;;;;;;6.87;3.08;;;;;;;0.66;68.88;99535.39;1648363;83;21463;-86
2022/11/22 06:11:21;;;;;;;6.35;2.72;;;;;;;0.70;68.43;99545.95;1744538;80;21669;-86
2022/11/22 06:14:03;;;;;;;8.38;2.98;;;;;;;0.73;68.46;99550.14;1736612;80;21088;-87
2022/11/22 06:16:38;;;;;;;5.25;2.62;;;;;;;0.76;68.39;99555.61;1645810;85;22306;-82
2022/11/22 06:19:27;;;;;;;6.22;2.62;;;;;;;0.80;68.49;99556.67;1711258;82;21105;-84
2022/11/22 06:24:24;;;;;;;8.65;2.55;;;;;;;0.76;68.25;99562.08;1775893;78;22708;-61
2022/11/22 06:26:50;;;;;;;8.50;2.90;;;;;;;0.77;67.57;99555.53;1747800;80;21038;-60
2022/11/22 06:29:17;;;;;;;10.38;3.47;;;;;;;0.71;67.83;99556.70;1717773;81;21614;-60
2022/11/22 06:31:44;;;;;;;7.25;2.35;;;;;;;0.73;67.97;99562.62;1719682;81;21551;-60
2022/11/22 06:34:11;;;;;;;6.85;2.67;;;;;;;0.72;68.04;99558.38;1718954;81;21069;-59
2022/11/22 06:36:38;;;;;;;7.92;3.55;;;;;;;0.73;68.03;99550.97;1716089;83;21037;-60
2022/11/22 06:39:05;;;;;;;12.43;3.70;;;;;;;0.74;68.01;99560.89;1717862;83;21105;-60
2022/11/22 06:41:35;;;;;;;7.12;2.87;;;;;;;0.70;67.91;99563.25;1718439;82;21697;-59
2022/11/22 06:44:06;;;;;;;9.10;3.25;;;;;;;0.68;67.67;99569.80;1721562;83;21085;-59
2022/11/22 06:46:35;;;;;;;9.03;2.98;;;;;;;0.66;67.87;99579.41;1721760;82;21050;-60
2022/11/22 06:49:01;;;;;;;8.08;3.42;;;;;;;0.66;67.99;99579.41;1719502;81;21153;-59
2022/11/22 06:51:29;;;;;;;7.53;4.75;;;;;;;0.65;68.03;99582.91;1719610;82;21073;-60
2022/11/22 06:53:56;;;;;;;9.80;3.87;;;;;;;0.65;68.17;99582.91;1713343;82;21260;-60
2022/11/22 06:56:28;;;;;;;8.00;3.37;;;;;;;0.67;68.21;99588.86;1717876;83;21109;-60
2022/11/22 06:58:55;;;;;;;8.88;3.70;;;;;;;0.70;68.01;99586.09;1719223;82;21012;-59
2022/11/22 07:01:24;;;;;;;7.58;3.27;;;;;;;0.72;68.15;99578.24;1719550;82;21110;-59
2022/11/22 07:03:54;;;;;;;7.60;3.62;;;;;;;0.78;67.91;99586.99;1716845;82;21046;-59
2022/11/22 07:06:19;;;;;;;10.38;4.17;;;;;;;0.80;67.84;99584.33;1719583;83;21171;-60
2022/11/22 07:08:46;;;;;;;13.95;6.42;;;;;;;0.80;67.88;99596.81;1715096;82;21114;-60
2022/11/22 07:11:20;;;;;;;13.35;4.80;;;;;;;0.80;67.78;99598.11;1714258;82;21083;-61
2022/11/22 07:13:47;;;;;;;8.78;3.65;;;;;;;0.80;67.93;99601.98;1715644;83;21126;-63
2022/11/22 07:16:18;;;;;;;8.78;3.47;;;;;;;0.85;67.89;99603.88;1713877;82;21039;-61
2022/11/22 07:18:46;;;;;;;12.40;6.70;;;;;;;0.88;67.77;99601.13;1711434;82;21442;-61
2022/11/22 07:21:17;;;;;;;8.55;4.00;;;;;;;0.87;67.62;99599.45;1713240;81;21615;-61
2022/11/22 07:23:46;;;;;;;8.35;3.35;;;;;;;0.87;67.53;99612.86;1707014;82;21079;-60
2022/11/22 07:26:14;;;;;;;8.40;3.62;;;;;;;0.84;67.26;99611.29;1705668;83;21588;-61
2022/11/22 07:28:41;;;;;;;7.55;3.42;;;;;;;0.82;67.41;99614.39;1699598;82;21130;-60
2022/11/22 07:31:09;;;;;;;9.05;3.95;;;;;;;0.83;67.74;99612.20;1697914;83;21188;-60
2022/11/22 07:33:37;;;;;;;8.15;4.35;;;;;;;0.89;67.71;99613.18;1705896;82;21106;-60
2022/11/22 07:36:15;;;;;;;9.25;3.72;;;;;;;0.93;67.36;99617.27;1697374;82;21077;-61
2022/11/22 07:38:42;;;;;;;12.35;5.47;;;;;;;0.88;66.73;99610.20;1698882;82;21035;-60
2022/11/22 07:41:09;;;;;;;17.05;8.18;;;;;;;0.84;66.82;99618.20;1703922;83;21106;-60
2022/11/22 07:43:36;;;;;;;9.23;3.83;;;;;;;0.84;66.94;99620.79;1702217;83;21258;-60
2022/11/22 07:46:09;;;;;;;13.15;6.55;;;;;;;0.86;66.98;99623.70;1700209;82;21346;-60
2022/11/22 07:48:37;;;;;;;9.58;4.20;;;;;;;0.88;66.83;99637.40;1698735;82;21102;-60
2022/11/22 07:51:05;;;;;;;9.18;3.70;;;;;;;0.87;66.68;99628.41;1730874;80;21028;-63
2022/11/22 07:53:33;;;;;;;9.08;4.42;;;;;;;0.87;66.68;99629.23;1735516;81;21023;-62
2022/11/22 07:56:05;;;;;;;10.23;3.98;;;;;;;0.91;66.95;99628.17;1733651;80;21281;-62
2022/11/22 07:58:33;;;;;;;7.90;3.77;;;;;;;0.97;66.68;99636.55;1701034;82;21105;-62
2022/11/22 08:01:10;;;;;;;7.78;3.67;;;;;;;0.98;66.39;99634.34;1697535;84;21070;-61
2022/11/22 08:03:37;;;;;;;11.55;3.83;;;;;;;0.97;66.06;99640.43;1744355;80;21540;-60
2022/11/22 08:06:09;;;;;;;8.45;4.67;;;;;;;0.97;66.18;99637.84;1734070;80;21058;-61
2022/11/22 08:08:36;;;;;;;8.45;3.47;;;;;;;0.98;66.35;99625.27;1739739;80;21814;-61
2022/11/22 08:11:04;;;;;;;9.75;4.10;;;;;;;1.01;66.15;99628.53;1739294;80;21110;-61
2022/11/22 08:13:33;;;;;;;8.00;3.92;;;;;;;1.01;66.19;99628.53;1736540;80;21426;-61
2022/11/22 08:16:06;;;;;;;9.88;3.45;;;;;;;1.02;66.33;99630.19;1740703;80;21649;-61
2022/11/22 08:18:34;;;;;;;9.73;3.30;;;;;;;1.07;66.56;99627.37;1697868;84;20955;-60
2022/11/22 08:21:04;;;;;;;9.60;3.77;;;;;;;1.20;66.53;99631.45;1700276;82;20892;-61
2022/11/22 08:23:31;;;;;;;7.72;3.65;;;;;;;1.23;66.23;99623.05;1745203;81;21504;-61
2022/11/22 08:25:58;;;;;;;7.97;3.17;;;;;;;1.28;66.14;99634.47;1708548;83;21501;-61
2022/11/22 08:28:25;;;;;;;9.18;3.45;;;;;;;1.21;65.60;99628.78;1707871;82;22518;-61
2022/11/22 08:31:07;;;;;;;9.98;4.17;;;;;;;1.17;65.74;99618.19;1703953;83;21003;-60
2022/11/22 08:33:34;;;;;;;9.30;4.55;;;;;;;1.18;66.14;99635.42;1700110;83;21272;-63
2022/11/22 08:36:01;;;;;;;8.93;4.33;;;;;;;1.23;66.17;99638.59;1705910;83;21097;-60
2022/11/22 08:38:28;;;;;;;8.93;4.00;;;;;;;1.31;65.89;99636.88;1704951;82;21075;-61
2022/11/22 08:40:54;;;;;;;8.78;3.98;;;;;;;1.36;65.79;99637.49;1714912;82;21063;-61
2022/11/22 08:43:21;;;;;;;8.18;3.37;;;;;;;1.36;65.24;99648.30;1706433;83;21043;-60
2022/11/22 08:45:48;;;;;;;8.53;3.80;;;;;;;1.33;65.42;99652.34;1704499;83;21810;-60
2022/11/22 08:48:15;;;;;;;9.38;3.92;;;;;;;1.32;65.52;99657.17;1714606;82;21549;-59
2022/11/22 08:50:43;;;;;;;8.33;4.05;;;;;;;1.32;65.49;99658.00;1694370;83;21063;-61
2022/11/22 08:53:10;;;;;;;7.10;2.65;;;;;;;1.32;65.77;99653.28;1666043;84;21032;-62
2022/11/22 08:55:36;;;;;;;7.60;3.52;;;;;;;1.34;65.54;99654.03;1690472;84;21024;-62
2022/11/22 08:58:04;;;;;;;8.63;3.70;;;;;;;1.28;65.48;99654.73;1680348;84;21214;-63
2022/11/22 09:00:30;;;;;;;7.65;3.25;;;;;;;1.28;65.39;99658.63;1682005;83;21103;-61
2022/11/22 09:02:57;;;;;;;6.62;3.08;;;;;;;1.16;65.79;99648.92;1697678;83;21042;-61
2022/11/22 09:05:23;;;;;;;8.35;3.37;;;;;;;1.25;65.36;99650.18;1734583;80;21067;-62
2022/11/22 09:07:50;;;;;;;8.93;3.55;;;;;;;1.20;65.20;99643.94;1746428;80;21098;-60
2022/11/22 09:10:16;;;;;;;7.42;3.08;;;;;;;1.26;65.25;99646.66;1738685;81;21259;-61
2022/11/22 09:12:44;;;;;;;6.65;3.25;;;;;;;1.21;65.48;99660.31;1710814;82;21401;-60
2022/11/22 09:15:11;;;;;;;8.25;3.77;;;;;;;1.19;65.48;99656.51;1757680;80;20952;-61
2022/11/22 09:17:38;;;;;;;8.90;3.50;;;;;;;1.19;65.84;99662.98;1713095;82;20915;-61
2022/11/22 09:20:06;;;;;;;7.55;3.92;;;;;;;1.25;65.69;99668.33;1712645;83;20919;-61
2022/11/22 09:22:32;;;;;;;7.70;3.55;;;;;;;1.25;65.65;99674.80;1708297;83;21829;-61
2022/11/22 09:25:00;;;;;;;6.97;4.17;;;;;;;1.25;65.79;99676.10;1748013;80;20908;-61
2022/11/22 09:27:26;;;;;;;10.48;4.80;;;;;;;1.24;65.89;99673.12;1741010;80;21086;-62
2022/11/22 09:29:54;;;;;;;6.85;3.20;;;;;;;1.23;65.77;99662.39;1743787;80;21059;-60
2022/11/22 09:32:21;;;;;;;8.03;3.90;;;;;;;1.25;66.04;99663.97;1747231;82;20997;-60
2022/11/22 09:34:48;;;;;;;10.15;4.62;;;;;;;1.25;65.87;99663.14;1747322;80;21218;-61
2022/11/22 09:37:17;;;;;;;9.10;4.45;;;;;;;1.31;65.81;99665.38;1703696;83;21125;-62
2022/11/22 09:39:45;;;;;;;8.80;3.80;;;;;;;1.32;65.85;99671.42;1743443;80;21027;-62
2022/11/22 09:42:23;;;;;;;7.15;2.52;;;;;;;1.34;65.62;99674.77;1746145;80;21098;-61
2022/11/22 09:44:59;;;;;;;10.65;3.95;;;;;;;1.34;65.81;99674.30;1742834;80;21098;-61
2022/11/22 09:47:55;;;;;;;8.55;3.67;;;;;;;1.40;65.80;99669.27;1731104;79;21252;-61
2022/11/22 09:50:52;;;;;;;8.65;3.92;;;;;;;1.39;65.84;99678.78;1746440;81;21633;-61
2022/11/22 09:53:52;;;;;;;8.15;3.67;;;;;;;1.39;65.82;99683.96;1741307;80;21055;-61
2022/11/22 09:56:20;;;;;;;9.63;3.67;;;;;;;1.42;66.11;99682.51;1705198;82;21044;-60
2022/11/22 09:59:10;;;;;;;8.53;3.75;;;;;;;1.52;66.14;99689.81;1706038;82;21082;-61
2022/11/22 10:01:43;;;;;;;9.18;3.60;;;;;;;1.54;66.11;99691.86;1746636;80;21093;-60
2022/11/22 10:06:45;;;;;;;9.63;4.22;;;;;;;1.44;66.81;99698.81;1732647;79;22612;-60
2022/11/22 10:09:41;;;;;;;10.63;4.62;;;;;;;1.51;66.50;99699.80;1694155;83;21640;-58
2022/11/22 10:12:29;;;;;;;8.48;4.42;;;;;;;1.50;66.46;99701.56;1694504;83;21309;-59
2022/11/22 10:15:38;;;;;;;8.33;3.67;;;;;;;1.50;66.61;99697.67;1699226;82;21034;-59
2022/11/22 10:18:30;;;;;;;8.33;4.37;;;;;;;1.54;66.63;99691.38;1714692;82;21122;-61
2022/11/22 10:20:57;;;;;;;8.95;3.58;;;;;;;1.57;66.57;99683.45;1708029;82;21222;-60
2022/11/22 10:23:24;;;;;;;7.55;3.15;;;;;;;1.61;66.64;99681.52;1717909;82;21094;-60
2022/11/22 10:26:19;;;;;;;11.20;5.62;;;;;;;1.63;66.67;99677.08;1713079;82;22222;-60
2022/11/22 10:28:57;;;;;;;9.70;4.58;;;;;;;1.62;66.44;99678.84;1722222;82;21027;-60
2022/11/22 10:31:35;;;;;;;10.20;4.55;;;;;;;1.63;66.67;99677.94;1655121;84;21065;-60
2022/11/22 10:34:16;;;;;;;8.78;4.45;;;;;;;1.66;66.54;99677.78;1722042;82;21081;-60
2022/11/22 10:37:20;;;;;;;9.15;4.28;;;;;;;1.69;66.41;99672.87;1714206;82;21134;-60
2022/11/22 10:40:19;;;;;;;9.30;4.45;;;;;;;1.75;66.68;99675.57;1702482;82;21462;-60
2022/11/22 10:43:24;;;;;;;11.55;4.75;;;;;;;1.80;66.38;99667.08;1642671;83;21179;-58
2022/11/22 10:46:19;;;;;;;9.15;4.20;;;;;;;1.83;66.26;99672.96;1683917;84;21157;-59
2022/11/22 10:49:06;;;;;;;8.95;4.50;;;;;;;1.83;66.33;99676.84;1679544;84;21066;-60
2022/11/22 10:52:10;;;;;;;7.95;3.70;;;;;;;1.79;66.03;99674.50;1688343;84;21088;-60
2022/11/22 10:54:48;;;;;;;9.18;4.30;;;;;;;1.76;65.93;99681.98;1685251;84;21160;-60
2022/11/22 10:57:42;;;;;;;8.15;3.77;;;;;;;1.72;66.26;99684.38;1687049;83;21078;-59
2022/11/22 11:00:23;;;;;;;9.70;3.55;;;;;;;1.73;66.39;99685.20;1707396;82;21137;-60
2022/11/22 11:03:25;;;;;;;8.75;3.83;;;;;;;1.75;66.60;99685.51;1704536;83;21042;-58
2022/11/22 11:06:03;;;;;;;8.13;4.00;;;;;;;1.83;66.66;99687.67;1676316;82;22488;-59
2022/11/22 11:08:52;;;;;;;9.65;4.35;;;;;;;1.86;66.29;99682.31;1702098;82;21172;-59
2022/11/22 11:11:21;;;;;;;11.28;4.78;;;;;;;1.85;66.42;99680.19;1695820;83;21128;-59
2022/11/22 11:14:03;;;;;;;9.08;3.95;;;;;;;1.94;66.59;99680.61;1697827;82;21077;-60
2022/11/22 11:16:33;;;;;;;7.35;3.85;;;;;;;2.00;66.15;99678.95;1700277;83;21528;-60
2022/11/22 11:19:18;;;;;;;7.22;4.10;;;;;;;1.95;65.90;99687.01;1685789;83;21085;-60
2022/11/22 11:21:55;;;;;;;8.70;3.27;;;;;;;1.92;66.09;99692.36;1694547;83;21683;-64
2022/11/22 11:24:21;;;;;;;7.28;3.27;;;;;;;1.89;65.86;99711.98;1713046;83;21128;-59
2022/11/22 11:26:55;;;;;;;7.70;3.87;;;;;;;1.81;65.99;99703.78;1687041;83;21047;-58
2022/11/22 11:29:41;;;;;;;6.95;2.80;;;;;;;1.81;66.23;99711.09;1692918;83;21439;-60
2022/11/22 11:32:15;;;;;;;7.72;3.52;;;;;;;1.81;66.30;99702.02;1690607;83;21057;-59
2022/11/22 11:34:59;;;;;;;8.78;3.10;;;;;;;1.81;66.19;99703.78;1714709;83;21130;-60
2022/11/22 11:37:34;;;;;;;10.05;4.08;;;;;;;1.81;66.37;99702.48;1691421;84;21144;-61
2022/11/22 11:40:00;;;;;;;7.08;3.52;;;;;;;1.85;66.41;99700.12;1696908;83;21098;-60
2022/11/22 11:42:32;;;;;;;9.23;4.40;;;;;;;1.91;66.35;99698.46;1698210;83;21064;-59
2022/11/22 11:45:23;;;;;;;10.43;4.42;;;;;;;1.92;66.20;99698.02;1693925;83;21182;-60
2022/11/22 11:47:51;;;;;;;8.50;3.95;;;;;;;1.91;66.09;99703.66;1695535;83;21075;-59
2022/11/22 11:50:20;;;;;;;8.85;3.80;;;;;;;1.89;66.14;99699.48;1699732;83;21104;-60
2022/11/22 11:53:05;;;;;;;10.20;4.30;;;;;;;1.84;66.20;99704.45;1695394;83;21080;-59
2022/11/22 11:55:34;;;;;;;10.55;3.70;;;;;;;1.83;66.37;99708.42;1697299;83;21085;-59
2022/11/22 11:58:02;;;;;;;7.85;4.75;;;;;;;1.80;66.54;99709.44;1696736;83;21091;-60
2022/11/22 12:00:37;;;;;;;8.65;3.95;;;;;;;1.80;66.87;99708.14;1704289;83;21245;-60
2022/11/22 12:03:10;;;;;;;7.97;3.47;;;;;;;1.78;66.89;99716.91;1707226;83;21064;-60
2022/11/22 12:05:37;;;;;;;9.83;4.60;;;;;;;1.78;66.94;99714.32;1704392;80;21011;-60
2022/11/22 12:08:18;;;;;;;9.03;4.53;;;;;;;1.73;67.18;99709.84;1734904;80;21491;-60
2022/11/22 12:10:56;;;;;;;9.75;4.75;;;;;;;1.70;67.23;99712.59;1691484;80;21571;-60
2022/11/22 12:13:37;;;;;;;8.98;4.45;;;;;;;1.67;67.34;99729.17;1728678;82;21267;-60
2022/11/22 12:16:22;;;;;;;7.35;3.62;;;;;;;1.63;66.76;99736.29;1726203;82;21608;-60
2022/11/22 12:19:25;;;;;;;6.65;3.30;;;;;;;1.55;66.80;99746.70;1732720;80;21004;-61
2022/11/22 12:22:14;;;;;;;8.10;3.83;;;;;;;1.50;66.89;99744.34;1733576;80;21050;-52
2022/11/22 12:24:53;;;;;;;9.33;4.42;;;;;;;1.46;66.77;99759.66;1732568;81;21024;-50
2022/11/22 12:27:20;;;;;;;7.08;3.98;;;;;;;1.39;67.03;99749.24;1703775;80;21292;-49
2022/11/22 12:29:47;;;;;;;9.08;4.25;;;;;;;1.35;67.32;99754.22;1728564;80;21675;-64
2022/11/22 12:32:19;;;;;;;8.13;3.42;;;;;;;1.38;67.58;99754.03;1732443;80;21571;-63
2022/11/22 12:35:08;;;;;;;7.83;3.40;;;;;;;1.37;67.40;99755.80;1728548;81;21078;-64
2022/11/22 12:37:52;;;;;;;7.40;3.70;;;;;;;1.38;67.58;99752.73;1732883;80;21077;-62